sensor_id;sensor_type;location;lat;lon;timestamp;P1;durP1;ratioP1;P2;durP2;ratioP2
66946;SDS011;53853;51.982;5.928;2023-09-07T00:00:09;7.97;;;5.35;;
66946;SDS011;53853;51.982;5.928;2023-09-07T00:02:40;10.90;;;6.70;;
66946;SDS011;53853;51.982;5.928;2023-09-07T00:05:10;10.20;;;6.45;;
66946;SDS011;53853;51.982;5.928;2023-09-07T00:07:40;9.15;;;5.82;;
66946;SDS011;53853;51.982;5.928;2023-09-07T00:10:13;5.68;;;3.85;;
66946;SDS011;53853;51.982;5.928;2023-09-07T00:12:43;5.93;;;4.10;;
66946;SDS011;53853;51.982;5.928;2023-09-07T00:15:13;7.90;;;4.68;;
66946;SDS011;53853;51.982;5.928;2023-09-07T00:17:45;6.47;;;4.20;;
66946;SDS011;53853;51.982;5.928;2023-09-07T00:20:17;6.30;;;3.67;;
66946;SDS011;53853;51.982;5.928;2023-09-07T00:22:47;7.95;;;4.70;;
66946;SDS011;53853;51.982;5.928;2023-09-07T00:25:20;7.38;;;4.05;;
66946;SDS011;53853;51.982;5.928;2023-09-07T00:27:50;4.35;;;2.97;;
66946;SDS011;53853;51.982;5.928;2023-09-07T00:30:19;4.47;;;2.85;;
66946;SDS011;53853;51.982;5.928;2023-09-07T00:32:49;3.78;;;2.38;;
66946;SDS011;53853;51.982;5.928;2023-09-07T00:35:19;4.75;;;3.00;;
66946;SDS011;53853;51.982;5.928;2023-09-07T00:37:49;5.10;;;2.83;;
66946;SDS011;53853;51.982;5.928;2023-09-07T00:40:22;4.43;;;2.50;;
66946;SDS011;53853;51.982;5.928;2023-09-07T00:42:53;5.05;;;3.20;;
66946;SDS011;53853;51.982;5.928;2023-09-07T00:45:23;4.75;;;3.10;;
66946;SDS011;53853;51.982;5.928;2023-09-07T00:47:53;5.60;;;3.35;;
66946;SDS011;53853;51.982;5.928;2023-09-07T00:50:24;5.93;;;3.83;;
66946;SDS011;53853;51.982;5.928;2023-09-07T00:52:54;4.00;;;2.72;;
66946;SDS011;53853;51.982;5.928;2023-09-07T00:55:27;6.13;;;3.55;;
66946;SDS011;53853;51.982;5.928;2023-09-07T00:58:00;4.43;;;2.88;;
66946;SDS011;53853;51.982;5.928;2023-09-07T01:00:31;5.38;;;3.67;;
66946;SDS011;53853;51.982;5.928;2023-09-07T01:03:02;4.68;;;3.25;;
66946;SDS011;53853;51.982;5.928;2023-09-07T01:05:34;4.47;;;3.17;;
66946;SDS011;53853;51.982;5.928;2023-09-07T01:08:11;3.58;;;2.30;;
66946;SDS011;53853;51.982;5.928;2023-09-07T01:10:49;3.58;;;2.58;;
66946;SDS011;53853;51.982;5.928;2023-09-07T01:13:19;5.90;;;3.87;;
66946;SDS011;53853;51.982;5.928;2023-09-07T01:15:49;6.28;;;3.88;;
66946;SDS011;53853;51.982;5.928;2023-09-07T01:18:20;6.65;;;3.90;;
66946;SDS011;53853;51.982;5.928;2023-09-07T01:20:51;4.90;;;3.45;;
66946;SDS011;53853;51.982;5.928;2023-09-07T01:23:26;4.63;;;2.90;;
66946;SDS011;53853;51.982;5.928;2023-09-07T01:25:57;5.00;;;3.42;;
66946;SDS011;53853;51.982;5.928;2023-09-07T01:28:27;4.70;;;3.65;;
66946;SDS011;53853;51.982;5.928;2023-09-07T01:30:58;4.68;;;3.20;;
66946;SDS011;53853;51.982;5.928;2023-09-07T01:33:28;4.00;;;2.63;;
66946;SDS011;53853;51.982;5.928;2023-09-07T01:35:58;3.78;;;2.47;;
66946;SDS011;53853;51.982;5.928;2023-09-07T01:38:31;4.47;;;2.95;;
66946;SDS011;53853;51.982;5.928;2023-09-07T01:41:01;5.55;;;3.22;;
66946;SDS011;53853;51.982;5.928;2023-09-07T01:43:32;3.35;;;2.60;;
66946;SDS011;53853;51.982;5.928;2023-09-07T01:46:01;5.65;;;2.63;;
66946;SDS011;53853;51.982;5.928;2023-09-07T01:48:31;2.63;;;1.92;;
66946;SDS011;53853;51.982;5.928;2023-09-07T01:51:02;2.33;;;1.65;;
66946;SDS011;53853;51.982;5.928;2023-09-07T01:53:35;2.83;;;1.70;;
66946;SDS011;53853;51.982;5.928;2023-09-07T01:56:05;2.25;;;1.55;;
66946;SDS011;53853;51.982;5.928;2023-09-07T01:58:35;2.70;;;1.50;;
66946;SDS011;53853;51.982;5.928;2023-09-07T02:01:06;2.83;;;1.77;;
66946;SDS011;53853;51.982;5.928;2023-09-07T02:03:48;4.07;;;1.90;;
66946;SDS011;53853;51.982;5.928;2023-09-07T02:06:18;4.03;;;2.50;;
66946;SDS011;53853;51.982;5.928;2023-09-07T02:08:51;4.15;;;2.28;;
66946;SDS011;53853;51.982;5.928;2023-09-07T02:13:52;4.25;;;2.40;;
66946;SDS011;53853;51.982;5.928;2023-09-07T02:16:22;6.25;;;3.03;;
66946;SDS011;53853;51.982;5.928;2023-09-07T02:18:59;5.68;;;3.53;;
66946;SDS011;53853;51.982;5.928;2023-09-07T02:21:30;4.95;;;2.80;;
66946;SDS011;53853;51.982;5.928;2023-09-07T02:24:02;3.85;;;2.63;;
66946;SDS011;53853;51.982;5.928;2023-09-07T02:26:33;6.05;;;3.70;;
66946;SDS011;53853;51.982;5.928;2023-09-07T02:29:09;5.15;;;3.03;;
66946;SDS011;53853;51.982;5.928;2023-09-07T02:31:39;4.80;;;2.58;;
66946;SDS011;53853;51.982;5.928;2023-09-07T02:34:09;3.63;;;2.45;;
66946;SDS011;53853;51.982;5.928;2023-09-07T02:36:39;4.60;;;3.20;;
66946;SDS011;53853;51.982;5.928;2023-09-07T02:39:11;3.25;;;2.15;;
66946;SDS011;53853;51.982;5.928;2023-09-07T02:41:41;3.05;;;1.80;;
66946;SDS011;53853;51.982;5.928;2023-09-07T02:44:12;3.80;;;2.50;;
66946;SDS011;53853;51.982;5.928;2023-09-07T02:46:42;3.67;;;2.08;;
66946;SDS011;53853;51.982;5.928;2023-09-07T02:49:12;3.38;;;2.13;;
66946;SDS011;53853;51.982;5.928;2023-09-07T02:54:28;2.67;;;1.77;;
66946;SDS011;53853;51.982;5.928;2023-09-07T02:56:58;2.43;;;1.47;;
66946;SDS011;53853;51.982;5.928;2023-09-07T02:59:28;3.25;;;2.35;;
66946;SDS011;53853;51.982;5.928;2023-09-07T03:01:58;2.70;;;1.88;;
66946;SDS011;53853;51.982;5.928;2023-09-07T03:04:28;2.67;;;1.70;;
66946;SDS011;53853;51.982;5.928;2023-09-07T03:07:00;2.53;;;1.75;;
66946;SDS011;53853;51.982;5.928;2023-09-07T03:09:32;2.70;;;1.67;;
66946;SDS011;53853;51.982;5.928;2023-09-07T03:14:34;3.17;;;1.70;;
66946;SDS011;53853;51.982;5.928;2023-09-07T03:17:04;2.30;;;1.65;;
66946;SDS011;53853;51.982;5.928;2023-09-07T03:19:35;2.70;;;1.65;;
66946;SDS011;53853;51.982;5.928;2023-09-07T03:22:06;2.58;;;1.80;;
66946;SDS011;53853;51.982;5.928;2023-09-07T03:24:39;2.72;;;1.95;;
66946;SDS011;53853;51.982;5.928;2023-09-07T03:27:10;2.43;;;1.73;;
66946;SDS011;53853;51.982;5.928;2023-09-07T03:29:41;3.45;;;2.00;;
66946;SDS011;53853;51.982;5.928;2023-09-07T03:32:13;2.42;;;1.75;;
66946;SDS011;53853;51.982;5.928;2023-09-07T03:34:43;3.92;;;2.70;;
66946;SDS011;53853;51.982;5.928;2023-09-07T03:37:13;3.00;;;2.30;;
66946;SDS011;53853;51.982;5.928;2023-09-07T03:39:45;4.07;;;2.95;;
66946;SDS011;53853;51.982;5.928;2023-09-07T03:42:15;3.28;;;2.42;;
66946;SDS011;53853;51.982;5.928;2023-09-07T03:44:45;3.05;;;2.20;;
66946;SDS011;53853;51.982;5.928;2023-09-07T03:47:15;3.40;;;2.67;;
66946;SDS011;53853;51.982;5.928;2023-09-07T03:49:46;4.43;;;3.03;;
66946;SDS011;53853;51.982;5.928;2023-09-07T03:52:16;4.00;;;2.70;;
66946;SDS011;53853;51.982;5.928;2023-09-07T03:54:50;3.53;;;2.70;;
66946;SDS011;53853;51.982;5.928;2023-09-07T03:57:22;3.10;;;2.10;;
66946;SDS011;53853;51.982;5.928;2023-09-07T03:59:52;3.13;;;2.22;;
66946;SDS011;53853;51.982;5.928;2023-09-07T04:02:23;3.67;;;2.35;;
66946;SDS011;53853;51.982;5.928;2023-09-07T04:04:54;2.92;;;1.92;;
66946;SDS011;53853;51.982;5.928;2023-09-07T04:07:24;3.35;;;1.92;;
66946;SDS011;53853;51.982;5.928;2023-09-07T04:09:57;3.35;;;1.65;;
66946;SDS011;53853;51.982;5.928;2023-09-07T04:12:27;2.83;;;1.90;;
66946;SDS011;53853;51.982;5.928;2023-09-07T04:14:57;2.85;;;1.85;;
66946;SDS011;53853;51.982;5.928;2023-09-07T04:17:27;2.33;;;1.65;;
66946;SDS011;53853;51.982;5.928;2023-09-07T04:20:06;4.80;;;2.28;;
66946;SDS011;53853;51.982;5.928;2023-09-07T04:22:38;2.85;;;2.10;;
66946;SDS011;53853;51.982;5.928;2023-09-07T04:25:11;2.75;;;1.83;;
66946;SDS011;53853;51.982;5.928;2023-09-07T04:27:41;2.53;;;1.60;;
66946;SDS011;53853;51.982;5.928;2023-09-07T04:30:11;2.55;;;1.70;;
66946;SDS011;53853;51.982;5.928;2023-09-07T04:32:42;2.08;;;1.52;;
66946;SDS011;53853;51.982;5.928;2023-09-07T04:35:12;2.60;;;1.80;;
66946;SDS011;53853;51.982;5.928;2023-09-07T04:37:42;2.47;;;1.80;;
66946;SDS011;53853;51.982;5.928;2023-09-07T04:40:15;2.50;;;2.00;;
66946;SDS011;53853;51.982;5.928;2023-09-07T04:42:45;2.40;;;1.75;;
66946;SDS011;53853;51.982;5.928;2023-09-07T04:45:15;2.78;;;1.95;;
66946;SDS011;53853;51.982;5.928;2023-09-07T04:47:46;1.80;;;1.30;;
66946;SDS011;53853;51.982;5.928;2023-09-07T04:50:16;2.10;;;1.50;;
66946;SDS011;53853;51.982;5.928;2023-09-07T04:52:46;3.15;;;2.03;;
66946;SDS011;53853;51.982;5.928;2023-09-07T04:55:19;3.80;;;2.38;;
66946;SDS011;53853;51.982;5.928;2023-09-07T04:57:49;2.47;;;1.67;;
66946;SDS011;53853;51.982;5.928;2023-09-07T05:00:19;2.35;;;1.65;;
66946;SDS011;53853;51.982;5.928;2023-09-07T05:02:49;2.70;;;1.92;;
66946;SDS011;53853;51.982;5.928;2023-09-07T05:05:19;3.15;;;1.90;;
66946;SDS011;53853;51.982;5.928;2023-09-07T05:07:50;2.78;;;2.13;;
66946;SDS011;53853;51.982;5.928;2023-09-07T05:10:22;2.20;;;1.80;;
66946;SDS011;53853;51.982;5.928;2023-09-07T05:12:52;2.88;;;2.20;;
66946;SDS011;53853;51.982;5.928;2023-09-07T05:15:23;3.55;;;2.47;;
66946;SDS011;53853;51.982;5.928;2023-09-07T05:17:53;3.22;;;2.58;;
66946;SDS011;53853;51.982;5.928;2023-09-07T05:20:23;2.95;;;2.35;;
66946;SDS011;53853;51.982;5.928;2023-09-07T05:22:53;3.85;;;2.72;;
66946;SDS011;53853;51.982;5.928;2023-09-07T05:25:27;3.30;;;2.30;;
66946;SDS011;53853;51.982;5.928;2023-09-07T05:27:57;4.45;;;3.30;;
66946;SDS011;53853;51.982;5.928;2023-09-07T05:30:28;3.67;;;3.28;;
66946;SDS011;53853;51.982;5.928;2023-09-07T05:32:57;3.25;;;2.78;;
66946;SDS011;53853;51.982;5.928;2023-09-07T05:35:27;4.30;;;3.17;;
66946;SDS011;53853;51.982;5.928;2023-09-07T05:37:58;3.58;;;3.00;;
66946;SDS011;53853;51.982;5.928;2023-09-07T05:40:33;4.35;;;2.97;;
66946;SDS011;53853;51.982;5.928;2023-09-07T05:43:03;6.07;;;3.45;;
66946;SDS011;53853;51.982;5.928;2023-09-07T05:45:35;3.13;;;2.28;;
66946;SDS011;53853;51.982;5.928;2023-09-07T05:48:07;3.58;;;2.50;;
66946;SDS011;53853;51.982;5.928;2023-09-07T05:50:37;3.20;;;2.50;;
66946;SDS011;53853;51.982;5.928;2023-09-07T05:53:09;2.72;;;1.85;;
66946;SDS011;53853;51.982;5.928;2023-09-07T05:55:42;2.33;;;1.58;;
66946;SDS011;53853;51.982;5.928;2023-09-07T05:58:12;2.83;;;2.35;;
66946;SDS011;53853;51.982;5.928;2023-09-07T06:00:44;2.97;;;2.00;;
66946;SDS011;53853;51.982;5.928;2023-09-07T06:03:14;2.63;;;1.80;;
66946;SDS011;53853;51.982;5.928;2023-09-07T06:05:44;3.00;;;1.88;;
66946;SDS011;53853;51.982;5.928;2023-09-07T06:08:14;3.00;;;1.77;;
66946;SDS011;53853;51.982;5.928;2023-09-07T06:10:46;2.97;;;2.13;;
66946;SDS011;53853;51.982;5.928;2023-09-07T06:13:16;2.10;;;1.50;;
66946;SDS011;53853;51.982;5.928;2023-09-07T06:15:46;2.75;;;1.70;;
66946;SDS011;53853;51.982;5.928;2023-09-07T06:18:16;2.70;;;1.63;;
66946;SDS011;53853;51.982;5.928;2023-09-07T06:20:46;2.67;;;1.60;;
66946;SDS011;53853;51.982;5.928;2023-09-07T06:23:17;3.38;;;2.28;;
66946;SDS011;53853;51.982;5.928;2023-09-07T06:25:49;2.65;;;2.13;;
66946;SDS011;53853;51.982;5.928;2023-09-07T06:28:19;4.93;;;2.80;;
66946;SDS011;53853;51.982;5.928;2023-09-07T06:30:50;8.30;;;4.93;;
66946;SDS011;53853;51.982;5.928;2023-09-07T06:33:20;4.85;;;3.63;;
66946;SDS011;53853;51.982;5.928;2023-09-07T06:35:50;4.95;;;3.78;;
66946;SDS011;53853;51.982;5.928;2023-09-07T06:38:20;3.83;;;2.75;;
66946;SDS011;53853;51.982;5.928;2023-09-07T06:40:53;3.50;;;2.58;;
66946;SDS011;53853;51.982;5.928;2023-09-07T06:43:23;4.20;;;3.58;;
66946;SDS011;53853;51.982;5.928;2023-09-07T06:45:54;3.88;;;2.78;;
66946;SDS011;53853;51.982;5.928;2023-09-07T06:48:30;4.07;;;3.20;;
66946;SDS011;53853;51.982;5.928;2023-09-07T06:51:01;5.05;;;3.28;;
66946;SDS011;53853;51.982;5.928;2023-09-07T06:53:33;4.83;;;3.80;;
66946;SDS011;53853;51.982;5.928;2023-09-07T06:56:05;3.75;;;3.05;;
66946;SDS011;53853;51.982;5.928;2023-09-07T06:58:36;5.45;;;3.38;;
66946;SDS011;53853;51.982;5.928;2023-09-07T07:01:06;4.93;;;3.83;;
66946;SDS011;53853;51.982;5.928;2023-09-07T07:03:36;3.53;;;3.13;;
66946;SDS011;53853;51.982;5.928;2023-09-07T07:06:06;3.78;;;2.85;;
66946;SDS011;53853;51.982;5.928;2023-09-07T07:08:36;3.80;;;2.70;;
66946;SDS011;53853;51.982;5.928;2023-09-07T07:11:09;3.25;;;2.40;;
66946;SDS011;53853;51.982;5.928;2023-09-07T07:13:39;3.80;;;2.95;;
66946;SDS011;53853;51.982;5.928;2023-09-07T07:16:10;3.80;;;2.70;;
66946;SDS011;53853;51.982;5.928;2023-09-07T07:18:40;3.05;;;2.00;;
66946;SDS011;53853;51.982;5.928;2023-09-07T07:21:10;3.53;;;2.42;;
66946;SDS011;53853;51.982;5.928;2023-09-07T07:23:41;2.25;;;1.60;;
66946;SDS011;53853;51.982;5.928;2023-09-07T07:26:14;2.63;;;1.60;;
66946;SDS011;53853;51.982;5.928;2023-09-07T07:28:44;2.97;;;1.83;;
66946;SDS011;53853;51.982;5.928;2023-09-07T07:31:14;3.63;;;2.47;;
66946;SDS011;53853;51.982;5.928;2023-09-07T07:33:46;3.13;;;2.20;;
66946;SDS011;53853;51.982;5.928;2023-09-07T07:36:18;1.63;;;1.20;;
66946;SDS011;53853;51.982;5.928;2023-09-07T07:38:47;2.00;;;1.38;;
66946;SDS011;53853;51.982;5.928;2023-09-07T07:41:21;1.60;;;1.00;;
66946;SDS011;53853;51.982;5.928;2023-09-07T07:43:51;3.90;;;3.10;;
66946;SDS011;53853;51.982;5.928;2023-09-07T07:46:21;2.92;;;2.08;;
66946;SDS011;53853;51.982;5.928;2023-09-07T07:48:51;3.10;;;2.42;;
66946;SDS011;53853;51.982;5.928;2023-09-07T07:51:21;3.20;;;2.22;;
66946;SDS011;53853;51.982;5.928;2023-09-07T07:53:53;3.17;;;1.90;;
66946;SDS011;53853;51.982;5.928;2023-09-07T07:56:27;2.22;;;1.48;;
66946;SDS011;53853;51.982;5.928;2023-09-07T07:58:57;2.78;;;1.77;;
66946;SDS011;53853;51.982;5.928;2023-09-07T08:01:29;2.15;;;1.25;;
66946;SDS011;53853;51.982;5.928;2023-09-07T08:04:00;1.98;;;1.30;;
66946;SDS011;53853;51.982;5.928;2023-09-07T08:06:30;2.40;;;1.60;;
66946;SDS011;53853;51.982;5.928;2023-09-07T08:09:01;2.20;;;1.60;;
66946;SDS011;53853;51.982;5.928;2023-09-07T08:11:34;2.53;;;1.65;;
66946;SDS011;53853;51.982;5.928;2023-09-07T08:14:05;1.92;;;1.30;;
66946;SDS011;53853;51.982;5.928;2023-09-07T08:16:35;2.50;;;1.80;;
66946;SDS011;53853;51.982;5.928;2023-09-07T08:19:06;2.90;;;2.13;;
66946;SDS011;53853;51.982;5.928;2023-09-07T08:21:36;5.57;;;4.00;;
66946;SDS011;53853;51.982;5.928;2023-09-07T08:24:08;7.07;;;4.78;;
66946;SDS011;53853;51.982;5.928;2023-09-07T08:26:41;5.28;;;3.90;;
66946;SDS011;53853;51.982;5.928;2023-09-07T08:29:13;3.22;;;2.42;;
66946;SDS011;53853;51.982;5.928;2023-09-07T08:31:46;3.85;;;2.80;;
66946;SDS011;53853;51.982;5.928;2023-09-07T08:34:16;5.78;;;4.75;;
66946;SDS011;53853;51.982;5.928;2023-09-07T08:36:48;4.15;;;3.58;;
66946;SDS011;53853;51.982;5.928;2023-09-07T08:39:20;6.53;;;4.97;;
66946;SDS011;53853;51.982;5.928;2023-09-07T08:41:53;6.18;;;5.10;;
66946;SDS011;53853;51.982;5.928;2023-09-07T08:44:26;6.28;;;5.25;;
66946;SDS011;53853;51.982;5.928;2023-09-07T08:46:57;4.03;;;3.38;;
66946;SDS011;53853;51.982;5.928;2023-09-07T08:49:30;5.03;;;4.53;;
66946;SDS011;53853;51.982;5.928;2023-09-07T08:52:02;6.70;;;4.90;;
66946;SDS011;53853;51.982;5.928;2023-09-07T08:54:33;6.95;;;4.30;;
66946;SDS011;53853;51.982;5.928;2023-09-07T08:57:07;4.43;;;3.88;;
66946;SDS011;53853;51.982;5.928;2023-09-07T08:59:37;4.63;;;3.78;;
66946;SDS011;53853;51.982;5.928;2023-09-07T09:02:08;4.10;;;3.33;;
66946;SDS011;53853;51.982;5.928;2023-09-07T09:04:39;4.57;;;3.33;;
66946;SDS011;53853;51.982;5.928;2023-09-07T09:07:09;5.00;;;3.85;;
66946;SDS011;53853;51.982;5.928;2023-09-07T09:09:39;4.95;;;4.22;;
66946;SDS011;53853;51.982;5.928;2023-09-07T09:12:13;5.18;;;4.03;;
66946;SDS011;53853;51.982;5.928;2023-09-07T09:14:43;5.70;;;4.57;;
66946;SDS011;53853;51.982;5.928;2023-09-07T09:17:14;4.22;;;3.40;;
66946;SDS011;53853;51.982;5.928;2023-09-07T09:19:44;4.00;;;3.25;;
66946;SDS011;53853;51.982;5.928;2023-09-07T09:22:14;4.40;;;3.30;;
66946;SDS011;53853;51.982;5.928;2023-09-07T09:24:47;3.20;;;2.80;;
66946;SDS011;53853;51.982;5.928;2023-09-07T09:27:19;2.67;;;1.90;;
66946;SDS011;53853;51.982;5.928;2023-09-07T09:29:50;5.95;;;4.22;;
66946;SDS011;53853;51.982;5.928;2023-09-07T09:32:20;5.05;;;3.83;;
66946;SDS011;53853;51.982;5.928;2023-09-07T09:34:50;5.30;;;3.92;;
66946;SDS011;53853;51.982;5.928;2023-09-07T09:37:20;4.25;;;3.55;;
66946;SDS011;53853;51.982;5.928;2023-09-07T09:39:50;5.13;;;4.25;;
66946;SDS011;53853;51.982;5.928;2023-09-07T09:42:23;4.45;;;3.22;;
66946;SDS011;53853;51.982;5.928;2023-09-07T09:44:54;4.10;;;3.45;;
66946;SDS011;53853;51.982;5.928;2023-09-07T09:47:25;4.05;;;3.47;;
66946;SDS011;53853;51.982;5.928;2023-09-07T09:49:54;5.20;;;3.95;;
66946;SDS011;53853;51.982;5.928;2023-09-07T09:52:25;5.07;;;3.67;;
66946;SDS011;53853;51.982;5.928;2023-09-07T09:54:56;5.72;;;4.50;;
66946;SDS011;53853;51.982;5.928;2023-09-07T09:57:29;4.03;;;3.20;;
66946;SDS011;53853;51.982;5.928;2023-09-07T10:00:00;3.67;;;2.45;;
66946;SDS011;53853;51.982;5.928;2023-09-07T10:02:38;3.80;;;2.85;;
66946;SDS011;53853;51.982;5.928;2023-09-07T10:05:09;6.28;;;4.10;;
66946;SDS011;53853;51.982;5.928;2023-09-07T10:07:41;3.65;;;3.13;;
66946;SDS011;53853;51.982;5.928;2023-09-07T10:10:12;4.68;;;3.35;;
66946;SDS011;53853;51.982;5.928;2023-09-07T10:12:45;4.07;;;3.03;;
66946;SDS011;53853;51.982;5.928;2023-09-07T10:15:20;6.50;;;3.30;;
66946;SDS011;53853;51.982;5.928;2023-09-07T10:18:02;4.20;;;3.35;;
66946;SDS011;53853;51.982;5.928;2023-09-07T10:20:51;3.95;;;2.67;;
66946;SDS011;53853;51.982;5.928;2023-09-07T10:23:34;3.53;;;2.53;;
66946;SDS011;53853;51.982;5.928;2023-09-07T10:26:09;4.30;;;3.50;;
66946;SDS011;53853;51.982;5.928;2023-09-07T10:28:43;3.78;;;2.80;;
66946;SDS011;53853;51.982;5.928;2023-09-07T10:31:16;7.03;;;3.55;;
66946;SDS011;53853;51.982;5.928;2023-09-07T10:33:46;5.78;;;3.10;;
66946;SDS011;53853;51.982;5.928;2023-09-07T10:36:20;5.47;;;3.28;;
66946;SDS011;53853;51.982;5.928;2023-09-07T10:38:52;4.03;;;3.20;;
66946;SDS011;53853;51.982;5.928;2023-09-07T10:41:23;4.18;;;2.85;;
66946;SDS011;53853;51.982;5.928;2023-09-07T10:43:55;4.57;;;2.65;;
66946;SDS011;53853;51.982;5.928;2023-09-07T10:46:25;3.70;;;3.00;;
66946;SDS011;53853;51.982;5.928;2023-09-07T10:48:55;5.93;;;3.70;;
66946;SDS011;53853;51.982;5.928;2023-09-07T10:51:25;3.67;;;2.80;;
66946;SDS011;53853;51.982;5.928;2023-09-07T10:53:55;4.57;;;3.55;;
66946;SDS011;53853;51.982;5.928;2023-09-07T10:56:25;3.70;;;2.90;;
66946;SDS011;53853;51.982;5.928;2023-09-07T10:58:58;4.07;;;3.08;;
66946;SDS011;53853;51.982;5.928;2023-09-07T11:01:28;4.25;;;3.38;;
66946;SDS011;53853;51.982;5.928;2023-09-07T11:03:59;3.42;;;2.95;;
66946;SDS011;53853;51.982;5.928;2023-09-07T11:06:30;4.85;;;3.67;;
66946;SDS011;53853;51.982;5.928;2023-09-07T11:09:02;3.67;;;2.55;;
66946;SDS011;53853;51.982;5.928;2023-09-07T11:11:34;3.65;;;3.13;;
66946;SDS011;53853;51.982;5.928;2023-09-07T11:14:07;3.50;;;2.60;;
66946;SDS011;53853;51.982;5.928;2023-09-07T11:16:37;3.93;;;2.67;;
66946;SDS011;53853;51.982;5.928;2023-09-07T11:19:10;3.75;;;2.78;;
66946;SDS011;53853;51.982;5.928;2023-09-07T11:21:41;3.63;;;2.75;;
66946;SDS011;53853;51.982;5.928;2023-09-07T11:24:11;2.88;;;2.10;;
66946;SDS011;53853;51.982;5.928;2023-09-07T11:26:42;4.75;;;3.08;;
66946;SDS011;53853;51.982;5.928;2023-09-07T11:29:16;4.38;;;3.33;;
66946;SDS011;53853;51.982;5.928;2023-09-07T11:31:46;4.03;;;3.22;;
66946;SDS011;53853;51.982;5.928;2023-09-07T11:34:16;6.55;;;3.90;;
66946;SDS011;53853;51.982;5.928;2023-09-07T11:36:46;3.88;;;2.72;;
66946;SDS011;53853;51.982;5.928;2023-09-07T11:39:16;3.53;;;2.90;;
66946;SDS011;53853;51.982;5.928;2023-09-07T11:41:46;4.18;;;2.70;;
66946;SDS011;53853;51.982;5.928;2023-09-07T11:44:19;3.75;;;3.20;;
66946;SDS011;53853;51.982;5.928;2023-09-07T11:46:49;4.13;;;3.27;;
66946;SDS011;53853;51.982;5.928;2023-09-07T11:49:19;3.92;;;2.83;;
66946;SDS011;53853;51.982;5.928;2023-09-07T11:51:50;4.20;;;3.20;;
66946;SDS011;53853;51.982;5.928;2023-09-07T11:54:20;4.07;;;3.00;;
66946;SDS011;53853;51.982;5.928;2023-09-07T11:56:50;3.60;;;2.67;;
66946;SDS011;53853;51.982;5.928;2023-09-07T11:59:22;4.75;;;2.78;;
66946;SDS011;53853;51.982;5.928;2023-09-07T12:01:54;3.17;;;2.60;;
66946;SDS011;53853;51.982;5.928;2023-09-07T12:04:24;4.15;;;2.85;;
66946;SDS011;53853;51.982;5.928;2023-09-07T12:06:57;3.80;;;2.47;;
66946;SDS011;53853;51.982;5.928;2023-09-07T12:09:27;4.40;;;2.50;;
66946;SDS011;53853;51.982;5.928;2023-09-07T12:11:57;3.33;;;2.55;;
66946;SDS011;53853;51.982;5.928;2023-09-07T12:14:29;3.88;;;2.70;;
66946;SDS011;53853;51.982;5.928;2023-09-07T12:16:59;4.03;;;2.60;;
66946;SDS011;53853;51.982;5.928;2023-09-07T12:19:29;3.00;;;2.20;;
66946;SDS011;53853;51.982;5.928;2023-09-07T12:21:59;3.28;;;2.22;;
66946;SDS011;53853;51.982;5.928;2023-09-07T12:24:29;3.33;;;2.35;;
66946;SDS011;53853;51.982;5.928;2023-09-07T12:26:59;3.90;;;3.20;;
66946;SDS011;53853;51.982;5.928;2023-09-07T12:29:32;3.60;;;2.70;;
66946;SDS011;53853;51.982;5.928;2023-09-07T12:32:02;5.83;;;3.10;;
66946;SDS011;53853;51.982;5.928;2023-09-07T12:34:32;3.53;;;2.78;;
66946;SDS011;53853;51.982;5.928;2023-09-07T12:37:03;5.32;;;3.08;;
66946;SDS011;53853;51.982;5.928;2023-09-07T12:39:33;3.47;;;2.72;;
66946;SDS011;53853;51.982;5.928;2023-09-07T12:42:03;4.75;;;3.10;;
66946;SDS011;53853;51.982;5.928;2023-09-07T12:44:36;3.33;;;2.45;;
66946;SDS011;53853;51.982;5.928;2023-09-07T12:47:06;3.83;;;3.27;;
66946;SDS011;53853;51.982;5.928;2023-09-07T12:49:36;5.72;;;3.97;;
66946;SDS011;53853;51.982;5.928;2023-09-07T12:52:07;3.78;;;3.28;;
66946;SDS011;53853;51.982;5.928;2023-09-07T12:54:38;4.25;;;3.05;;
66946;SDS011;53853;51.982;5.928;2023-09-07T12:57:08;4.28;;;2.22;;
66946;SDS011;53853;51.982;5.928;2023-09-07T12:59:41;4.30;;;3.22;;
66946;SDS011;53853;51.982;5.928;2023-09-07T13:02:11;4.43;;;3.38;;
66946;SDS011;53853;51.982;5.928;2023-09-07T13:04:41;4.57;;;3.40;;
66946;SDS011;53853;51.982;5.928;2023-09-07T13:07:11;3.63;;;3.17;;
66946;SDS011;53853;51.982;5.928;2023-09-07T13:09:42;4.38;;;3.40;;
66946;SDS011;53853;51.982;5.928;2023-09-07T13:12:13;3.58;;;2.83;;
66946;SDS011;53853;51.982;5.928;2023-09-07T13:14:45;3.25;;;2.45;;
66946;SDS011;53853;51.982;5.928;2023-09-07T13:17:15;3.80;;;2.30;;
66946;SDS011;53853;51.982;5.928;2023-09-07T13:19:45;5.22;;;3.40;;
66946;SDS011;53853;51.982;5.928;2023-09-07T13:22:16;4.28;;;3.45;;
66946;SDS011;53853;51.982;5.928;2023-09-07T13:24:46;4.05;;;3.22;;
66946;SDS011;53853;51.982;5.928;2023-09-07T13:27:16;3.63;;;2.78;;
66946;SDS011;53853;51.982;5.928;2023-09-07T13:29:48;4.53;;;3.33;;
66946;SDS011;53853;51.982;5.928;2023-09-07T13:32:18;3.80;;;2.93;;
66946;SDS011;53853;51.982;5.928;2023-09-07T13:34:48;3.63;;;2.47;;
66946;SDS011;53853;51.982;5.928;2023-09-07T13:37:18;2.97;;;2.10;;
66946;SDS011;53853;51.982;5.928;2023-09-07T13:39:48;3.00;;;2.10;;
66946;SDS011;53853;51.982;5.928;2023-09-07T13:42:18;4.38;;;2.97;;
66946;SDS011;53853;51.982;5.928;2023-09-07T13:44:50;3.22;;;2.65;;
66946;SDS011;53853;51.982;5.928;2023-09-07T13:47:22;6.35;;;3.53;;
66946;SDS011;53853;51.982;5.928;2023-09-07T13:49:52;4.78;;;3.72;;
66946;SDS011;53853;51.982;5.928;2023-09-07T13:52:21;6.00;;;3.17;;
66946;SDS011;53853;51.982;5.928;2023-09-07T13:54:51;4.93;;;3.85;;
66946;SDS011;53853;51.982;5.928;2023-09-07T13:57:21;6.22;;;3.90;;
66946;SDS011;53853;51.982;5.928;2023-09-07T13:59:54;3.85;;;3.28;;
66946;SDS011;53853;51.982;5.928;2023-09-07T14:02:24;4.57;;;2.85;;
66946;SDS011;53853;51.982;5.928;2023-09-07T14:04:54;3.75;;;2.97;;
66946;SDS011;53853;51.982;5.928;2023-09-07T14:07:24;4.05;;;2.95;;
66946;SDS011;53853;51.982;5.928;2023-09-07T14:09:54;3.33;;;2.80;;
66946;SDS011;53853;51.982;5.928;2023-09-07T14:12:24;3.40;;;2.70;;
66946;SDS011;53853;51.982;5.928;2023-09-07T14:14:56;5.38;;;3.58;;
66946;SDS011;53853;51.982;5.928;2023-09-07T14:17:26;6.85;;;4.35;;
66946;SDS011;53853;51.982;5.928;2023-09-07T14:19:56;5.13;;;4.03;;
66946;SDS011;53853;51.982;5.928;2023-09-07T14:22:26;4.07;;;3.28;;
66946;SDS011;53853;51.982;5.928;2023-09-07T14:24:56;3.17;;;2.38;;
66946;SDS011;53853;51.982;5.928;2023-09-07T14:27:26;5.18;;;3.65;;
66946;SDS011;53853;51.982;5.928;2023-09-07T14:29:58;7.07;;;4.10;;
66946;SDS011;53853;51.982;5.928;2023-09-07T14:32:28;4.20;;;3.60;;
66946;SDS011;53853;51.982;5.928;2023-09-07T14:34:58;3.90;;;2.90;;
66946;SDS011;53853;51.982;5.928;2023-09-07T14:37:28;4.38;;;3.30;;
66946;SDS011;53853;51.982;5.928;2023-09-07T14:39:58;7.25;;;4.63;;
66946;SDS011;53853;51.982;5.928;2023-09-07T14:42:28;5.40;;;3.83;;
66946;SDS011;53853;51.982;5.928;2023-09-07T14:45:01;3.97;;;3.13;;
66946;SDS011;53853;51.982;5.928;2023-09-07T14:47:31;4.45;;;3.50;;
66946;SDS011;53853;51.982;5.928;2023-09-07T14:50:01;3.70;;;2.95;;
66946;SDS011;53853;51.982;5.928;2023-09-07T14:52:31;3.38;;;2.60;;
66946;SDS011;53853;51.982;5.928;2023-09-07T14:55:07;3.33;;;2.75;;
66946;SDS011;53853;51.982;5.928;2023-09-07T14:57:37;4.38;;;3.58;;
66946;SDS011;53853;51.982;5.928;2023-09-07T15:00:13;5.03;;;3.08;;
66946;SDS011;53853;51.982;5.928;2023-09-07T15:02:43;6.50;;;3.47;;
66946;SDS011;53853;51.982;5.928;2023-09-07T15:05:13;4.55;;;3.28;;
66946;SDS011;53853;51.982;5.928;2023-09-07T15:07:43;3.78;;;3.08;;
66946;SDS011;53853;51.982;5.928;2023-09-07T15:10:13;3.60;;;2.70;;
66946;SDS011;53853;51.982;5.928;2023-09-07T15:12:43;4.65;;;3.13;;
66946;SDS011;53853;51.982;5.928;2023-09-07T15:15:15;4.70;;;3.60;;
66946;SDS011;53853;51.982;5.928;2023-09-07T15:17:46;3.92;;;3.20;;